METAR AND TAF INFORMATION
METAR FOR EDHI
ADDS - METARS form results

(2056 UTC 12 August 2020)
Data provider http://aviationweather.gov/metar/data/
 
METAR text: EDHI 122050Z AUTO 08010KT 9999 // NCD 26/12 Q1016
Conditions at: EDHI (HAMBURG/FINKENWE, DE) observed 2050 UTC 12 August 2020
Temperature: 26.0°C (79°F)
Dewpoint: 12.0°C (54°F) [RH = 42%]
Pressure (altimeter): 30.00 inches Hg (1016.0 mb)
Winds: from the E (80 degrees) at 12 MPH (10 knots; 5.1 m/s)
Visibility: 6 or more miles (10+ km)
Ceiling: at least 12,000 feet AGL
Clouds: sky clear below 12,000 feet AGL
Weather: no significant weather observed at this time

METAR text: EDHI 122020Z AUTO 07009KT 9999 // NCD 26/13 Q1016
Conditions at: EDHI (HAMBURG/FINKENWE, DE) observed 2020 UTC 12 August 2020
Temperature: 26.0°C (79°F)
Dewpoint: 13.0°C (55°F) [RH = 45%]
Pressure (altimeter): 30.00 inches Hg (1016.0 mb)
Winds: from the ENE (70 degrees) at 10 MPH (9 knots; 4.6 m/s)
Visibility: 6 or more miles (10+ km)
Ceiling: at least 12,000 feet AGL
Clouds: sky clear below 12,000 feet AGL
Weather: no significant weather observed at this time

Forecast for: EDHI (HAMBURG/FINKENWE, DE)
Text: TAF EDHI 121700Z 1218/1221 06012KT CAVOK
Forecast period: 1800 to 2100 UTC 12 August 2020
Forecast type: FROM: standard forecast or significant change
Winds: from the ENE (60 degrees) at 14 MPH (12 knots; 6.2 m/s)
Visibility: 6 or more miles (10+ km)
Ceiling: unknown
Clouds: missing
Weather: NSW  (no significant weather)
Text: BECMG 1218/1220 08007KT
Forecast period: 1800 to 2100 UTC 12 August 2020
Forecast type: BECOMING: Conditions expected to become as follows by 2000 UTC 12 August 2020
Winds: from the E (80 degrees) at 8 MPH (7 knots; 3.6 m/s)
Visibility: 6 or more miles (10+ km)
Ceiling: unknown
Clouds: missing
Weather: NSW  (no significant weather)

 AIRPORT MAP

 RUNWAY INFORMATION
Runway 05 Runway length 8629 ft Runway width 148 ft
Runway elevation 16 ft Runway displaced threshold 341 ft Runway heading 52
Runway 23 Runway length 8629 ft Runway width 148 ft
Runway elevation 15 ft Runway displaced threshold 2474 ft Runway heading 232

 AIRPORT FREQUENCIES
Type A/D Name BREMEN RAD Frequency 124.225 MHZ
Type AFIS Name BREMEN INF Frequency 125.1 MHZ
Type ATIS Name ATIS Frequency 123.125 MHZ
Type TWR Name FINKENWERD Frequency 123.25 MHZ

 AIRPORT NEAR NAVIGATION AIDS



Powered by Virtual Airlines Manager [v2.6.2]